createdAt,value
2023-10-26T00:02:28.290Z,28.70
2023-10-26T00:04:58.111Z,28.69
2023-10-26T00:07:27.810Z,28.72
2023-10-26T00:09:59.412Z,28.77
2023-10-26T00:12:29.436Z,28.80
2023-10-26T00:14:59.292Z,28.79
2023-10-26T00:17:29.233Z,28.82
2023-10-26T00:19:59.035Z,28.85
2023-10-26T00:22:31.106Z,28.89
2023-10-26T00:25:01.518Z,28.94
2023-10-26T00:27:31.164Z,28.97
2023-10-26T00:30:01.221Z,29.01
2023-10-26T00:32:31.353Z,29.03
2023-10-26T00:35:01.342Z,29.04
2023-10-26T00:37:32.708Z,29.06
2023-10-26T00:40:05.304Z,29.08
2023-10-26T00:42:35.241Z,29.11
2023-10-26T00:45:05.144Z,29.14
2023-10-26T00:47:35.088Z,29.17
2023-10-26T00:50:05.497Z,29.15
2023-10-26T00:52:37.451Z,29.16
2023-10-26T00:55:08.727Z,29.20
2023-10-26T00:57:38.943Z,29.24
2023-10-26T01:00:10.350Z,29.27
2023-10-26T01:02:41.248Z,29.30
2023-10-26T01:05:11.285Z,29.33
2023-10-26T01:07:41.656Z,29.37
2023-10-26T01:10:12.417Z,29.39
2023-10-26T01:12:42.567Z,29.42
2023-10-26T01:15:13.146Z,29.46
2023-10-26T01:17:43.443Z,29.47
2023-10-26T01:20:19.024Z,29.50
2023-10-26T01:22:48.982Z,29.52
2023-10-26T01:25:18.630Z,29.27
2023-10-26T01:27:49.454Z,29.56
2023-10-26T01:30:19.549Z,29.59
2023-10-26T01:32:49.741Z,29.61
2023-10-26T01:35:19.883Z,29.64
2023-10-26T01:37:50.351Z,29.65
2023-10-26T01:40:20.692Z,29.68
2023-10-26T01:42:50.459Z,29.70
2023-10-26T01:45:20.080Z,29.73
2023-10-26T01:47:50.177Z,29.74
2023-10-26T01:50:20.009Z,29.77
2023-10-26T01:52:49.916Z,29.79
2023-10-26T01:55:19.851Z,29.82
2023-10-26T01:57:49.926Z,29.84
2023-10-26T02:00:20.713Z,29.88
2023-10-26T02:02:52.331Z,29.90
2023-10-26T02:05:22.632Z,29.91
2023-10-26T02:07:52.920Z,29.93
2023-10-26T02:10:24.056Z,29.95
2023-10-26T02:12:54.710Z,29.97
2023-10-26T02:15:24.853Z,30.00
2023-10-26T02:17:55.419Z,30.00
2023-10-26T02:20:25.715Z,30.03
2023-10-26T02:22:56.136Z,30.06
2023-10-26T02:25:26.053Z,30.07
2023-10-26T02:27:56.409Z,30.11
2023-10-26T02:30:27.133Z,30.14
2023-10-26T02:32:57.463Z,30.15
2023-10-26T02:35:27.402Z,30.17
2023-10-26T02:37:57.740Z,30.20
2023-10-26T02:40:28.547Z,30.22
2023-10-26T02:42:58.886Z,30.24
2023-10-26T02:45:29.101Z,30.26
2023-10-26T02:48:00.702Z,30.30
2023-10-26T02:50:31.537Z,30.32
2023-10-26T02:53:02.941Z,30.34
2023-10-26T02:55:34.446Z,30.36
2023-10-26T02:58:04.496Z,30.38
2023-10-26T03:00:34.219Z,30.42
2023-10-26T03:03:04.503Z,30.43
2023-10-26T03:05:35.593Z,30.44
2023-10-26T03:08:05.775Z,30.46
2023-10-26T03:10:35.406Z,30.49
2023-10-26T03:13:07.044Z,30.51
2023-10-26T03:15:36.926Z,30.54
2023-10-26T03:18:07.215Z,30.55
2023-10-26T03:20:37.145Z,30.56
2023-10-26T03:23:07.149Z,30.59
2023-10-26T03:25:37.156Z,30.61
2023-10-26T03:28:06.852Z,30.62
2023-10-26T03:30:36.664Z,30.64
2023-10-26T03:33:06.542Z,30.67
2023-10-26T03:35:37.709Z,30.69
2023-10-26T03:38:07.533Z,30.72
2023-10-26T03:40:37.913Z,30.74
2023-10-26T03:43:07.873Z,30.57
2023-10-26T03:45:37.555Z,30.78
2023-10-26T03:48:07.993Z,30.81
2023-10-26T03:50:38.801Z,30.81
2023-10-26T03:53:09.054Z,30.83
2023-10-26T03:55:39.074Z,30.85
2023-10-26T03:58:08.835Z,30.86
2023-10-26T04:00:38.752Z,30.89
2023-10-26T04:03:08.501Z,30.90
2023-10-26T04:05:38.815Z,30.91
2023-10-26T04:08:09.563Z,30.94
2023-10-26T04:10:39.411Z,30.95
2023-10-26T04:13:09.324Z,30.96
2023-10-26T04:15:39.045Z,30.98
2023-10-26T04:18:09.235Z,31.01
2023-10-26T04:20:39.172Z,31.02
2023-10-26T04:23:09.334Z,31.03
2023-10-26T04:25:53.720Z,31.05
2023-10-26T04:28:24.713Z,31.09
2023-10-26T04:30:55.412Z,31.09
2023-10-26T04:33:25.433Z,31.12
2023-10-26T04:35:55.301Z,31.14
2023-10-26T04:38:25.199Z,31.16
2023-10-26T04:40:55.552Z,31.20
2023-10-26T04:43:25.455Z,31.22
2023-10-26T04:45:55.260Z,31.23
2023-10-26T04:48:25.335Z,31.26
2023-10-26T04:50:55.221Z,31.26
2023-10-26T04:53:25.050Z,31.28
2023-10-26T04:55:55.145Z,31.14
2023-10-26T04:58:24.803Z,31.30
2023-10-26T05:00:54.756Z,31.31
2023-10-26T05:03:24.425Z,31.32
2023-10-26T05:05:54.906Z,31.33
2023-10-26T05:08:24.891Z,31.34
2023-10-26T05:10:54.583Z,31.37
2023-10-26T05:13:26.122Z,31.38
2023-10-26T05:15:56.132Z,31.39
2023-10-26T05:18:25.771Z,31.38
2023-10-26T05:20:55.951Z,31.40
2023-10-26T05:23:26.206Z,31.41
2023-10-26T05:25:56.058Z,31.41
2023-10-26T05:28:26.134Z,31.42
2023-10-26T05:30:55.867Z,31.41
2023-10-26T05:33:26.453Z,31.44
2023-10-26T05:35:56.411Z,31.44
2023-10-26T05:38:26.338Z,31.44
2023-10-26T05:40:57.937Z,31.46
2023-10-26T05:43:27.920Z,31.47
2023-10-26T05:46:03.773Z,31.47
2023-10-26T05:48:35.163Z,31.48
2023-10-26T05:51:05.381Z,31.48
2023-10-26T05:53:35.155Z,31.47
2023-10-26T05:56:06.392Z,31.50
2023-10-26T05:58:36.261Z,31.50
2023-10-26T06:01:06.084Z,31.52
2023-10-26T06:03:36.034Z,31.50
2023-10-26T06:06:06.239Z,31.51
2023-10-26T06:08:35.956Z,31.51
2023-10-26T06:11:06.060Z,31.52
2023-10-26T06:13:35.648Z,31.52
2023-10-26T06:16:05.812Z,31.52
2023-10-26T06:18:35.881Z,31.51
2023-10-26T06:21:06.320Z,31.53
2023-10-26T06:23:36.094Z,31.53
2023-10-26T06:26:06.392Z,31.53
2023-10-26T06:28:36.222Z,31.53
2023-10-26T06:31:18.671Z,31.54
2023-10-26T06:33:48.678Z,31.54
2023-10-26T06:36:18.527Z,31.54
2023-10-26T06:38:48.540Z,31.54
2023-10-26T06:41:18.888Z,31.54
2023-10-26T06:43:48.878Z,31.54
2023-10-26T06:46:19.017Z,31.54
2023-10-26T06:48:49.043Z,31.54
2023-10-26T06:51:19.640Z,31.55
2023-10-26T06:53:49.589Z,31.55
2023-10-26T06:56:19.265Z,31.55
2023-10-26T06:58:49.571Z,31.55
2023-10-26T07:01:21.117Z,31.56
2023-10-26T07:03:53.108Z,31.56
2023-10-26T07:06:23.817Z,31.56
2023-10-26T07:08:56.659Z,31.57
2023-10-26T07:11:26.999Z,31.56
2023-10-26T07:13:56.860Z,31.56
2023-10-26T07:16:26.919Z,31.57
2023-10-26T07:18:56.502Z,31.57
2023-10-26T07:21:26.394Z,31.57
2023-10-26T07:23:56.278Z,31.58
2023-10-26T07:26:25.966Z,31.59
2023-10-26T07:28:57.447Z,31.60
2023-10-26T07:31:27.398Z,31.62
2023-10-26T07:33:57.037Z,31.61
2023-10-26T07:36:29.102Z,31.63
2023-10-26T07:39:47.891Z,31.65
2023-10-26T07:42:06.882Z,31.67
2023-10-26T07:44:41.152Z,31.70
2023-10-26T07:47:11.289Z,31.72
2023-10-26T07:49:40.976Z,31.74
2023-10-26T07:52:11.033Z,31.76
2023-10-26T07:54:40.650Z,31.79
2023-10-26T07:57:10.832Z,31.80
2023-10-26T07:59:40.495Z,31.81
2023-10-26T08:02:10.873Z,31.85
2023-10-26T08:04:41.009Z,31.88
2023-10-26T08:07:10.884Z,31.91
2023-10-26T08:09:40.771Z,31.93
2023-10-26T08:12:12.838Z,31.96
2023-10-26T08:16:10.443Z,31.97
2023-10-26T08:17:39.020Z,32.00
2023-10-26T08:20:10.197Z,32.02
2023-10-26T08:22:40.377Z,32.04
2023-10-26T08:25:10.276Z,32.05
2023-10-26T08:27:41.729Z,32.08
2023-10-26T08:30:12.404Z,32.11
2023-10-26T08:32:42.309Z,32.12
2023-10-26T08:35:12.924Z,32.16
2023-10-26T08:37:43.007Z,32.16
2023-10-26T08:40:15.544Z,32.19
2023-10-26T08:42:46.083Z,32.21
2023-10-26T08:45:26.928Z,32.22
2023-10-26T08:47:58.371Z,32.23
2023-10-26T08:50:28.504Z,32.25
2023-10-26T08:52:58.954Z,32.26
2023-10-26T08:55:28.974Z,32.24
2023-10-26T08:58:04.146Z,32.26
2023-10-26T09:00:34.850Z,32.28
2023-10-26T09:03:07.291Z,32.28
2023-10-26T09:05:57.094Z,32.29
2023-10-26T09:08:29.717Z,32.29
2023-10-26T09:10:59.801Z,32.30
2023-10-26T09:13:30.441Z,32.30
2023-10-26T09:16:00.966Z,31.94
2023-10-26T09:18:30.930Z,31.71
2023-10-26T09:21:07.484Z,31.56
2023-10-26T09:23:39.381Z,31.44
2023-10-26T09:26:10.213Z,31.36
2023-10-26T09:28:53.891Z,31.31
2023-10-26T09:31:25.166Z,31.29
2023-10-26T09:33:55.316Z,31.26
2023-10-26T09:36:25.111Z,31.24
2023-10-26T09:38:56.011Z,31.21
2023-10-26T09:41:26.624Z,31.24
2023-10-26T09:43:56.970Z,31.42
2023-10-26T09:46:27.624Z,31.37
2023-10-26T09:48:57.517Z,31.37
2023-10-26T09:51:27.549Z,31.37
2023-10-26T09:53:57.567Z,31.35
2023-10-26T09:56:28.777Z,31.38
2023-10-26T09:59:00.086Z,31.38
2023-10-26T10:01:39.408Z,31.33
2023-10-26T10:04:10.575Z,31.34
2023-10-26T10:06:53.078Z,31.33
2023-10-26T10:09:24.651Z,31.31
2023-10-26T10:12:08.039Z,31.33
2023-10-26T10:17:46.063Z,31.31
2023-10-26T10:20:21.326Z,31.30
2023-10-26T10:22:53.347Z,31.30
2023-10-26T10:25:25.534Z,31.29
2023-10-26T10:27:55.591Z,31.29
2023-10-26T10:30:31.188Z,31.29
2023-10-26T10:33:03.603Z,31.29
2023-10-26T10:35:45.785Z,31.29
2023-10-26T10:38:16.063Z,31.26
2023-10-26T10:40:57.685Z,31.29
2023-10-26T10:43:35.082Z,31.25
2023-10-26T10:46:18.246Z,31.22
2023-10-26T10:48:58.498Z,31.23
2023-10-26T10:51:37.815Z,31.20
2023-10-26T10:54:24.196Z,31.20
2023-10-26T10:56:58.740Z,31.16
2023-10-26T10:59:29.341Z,31.13
2023-10-26T11:02:17.416Z,31.13
2023-10-26T11:05:17.437Z,31.12
2023-10-26T11:07:50.029Z,31.11
2023-10-26T11:10:20.358Z,31.12
2023-10-26T11:12:53.426Z,31.13
2023-10-26T11:15:32.415Z,31.11
2023-10-26T11:18:02.951Z,31.11
2023-10-26T11:20:41.137Z,31.12
2023-10-26T11:23:12.181Z,31.08
2023-10-26T11:25:42.215Z,31.06
2023-10-26T11:28:12.024Z,31.06
2023-10-26T11:31:01.541Z,31.06
2023-10-26T11:33:44.538Z,31.05
2023-10-26T11:36:15.453Z,31.04
2023-10-26T11:38:51.710Z,30.99
2023-10-26T11:41:22.733Z,30.99
2023-10-26T11:43:52.482Z,31.00
2023-10-26T11:46:32.954Z,30.96
2023-10-26T11:49:04.219Z,30.97
2023-10-26T11:51:38.620Z,30.95
2023-10-26T11:54:13.354Z,30.95
2023-10-26T11:56:43.315Z,30.95
2023-10-26T11:59:13.608Z,30.96
2023-10-26T12:01:43.610Z,30.94
2023-10-26T12:04:14.001Z,30.92
2023-10-26T12:06:44.443Z,30.91
2023-10-26T12:09:15.778Z,30.89
2023-10-26T12:11:47.959Z,30.87
2023-10-26T12:14:17.935Z,30.86
2023-10-26T12:16:48.683Z,30.87
2023-10-26T12:19:18.725Z,30.84
2023-10-26T12:21:48.484Z,30.82
2023-10-26T12:24:18.765Z,30.82
2023-10-26T12:26:48.394Z,30.82
2023-10-26T12:29:21.120Z,30.79
2023-10-26T12:31:51.169Z,30.79
2023-10-26T12:34:24.250Z,30.77
2023-10-26T12:36:54.179Z,30.76
2023-10-26T12:39:23.920Z,30.73
2023-10-26T12:41:53.932Z,30.73
2023-10-26T12:44:26.328Z,30.73
2023-10-26T12:46:56.946Z,30.72
2023-10-26T12:49:27.163Z,30.72
2023-10-26T12:51:57.064Z,30.72
2023-10-26T12:54:27.124Z,30.72
2023-10-26T12:56:57.015Z,30.70
2023-10-26T12:59:27.113Z,30.71
2023-10-26T13:01:56.749Z,30.71
2023-10-26T13:04:27.005Z,30.69
2023-10-26T13:06:56.920Z,30.69
2023-10-26T13:09:27.089Z,30.68
2023-10-26T13:11:56.744Z,30.66
2023-10-26T13:14:26.516Z,30.66
2023-10-26T13:16:58.030Z,30.66
2023-10-26T13:19:30.109Z,30.65
2023-10-26T13:22:00.029Z,30.66
2023-10-26T13:24:29.934Z,30.66
2023-10-26T13:27:00.315Z,30.64
2023-10-26T13:29:30.125Z,30.64
2023-10-26T13:32:00.152Z,30.63
2023-10-26T13:34:29.917Z,30.63
2023-10-26T13:37:02.783Z,30.63
2023-10-26T13:39:32.882Z,30.63
2023-10-26T13:42:02.678Z,30.62
2023-10-26T13:44:32.613Z,30.63
2023-10-26T13:47:03.091Z,30.61
2023-10-26T13:49:32.986Z,30.62
2023-10-26T13:52:02.712Z,30.62
2023-10-26T13:54:32.889Z,30.61
2023-10-26T13:57:02.612Z,30.62
2023-10-26T13:59:32.738Z,30.62
2023-10-26T14:02:02.687Z,30.61
2023-10-26T14:04:37.399Z,30.60
2023-10-26T14:07:11.325Z,30.59
2023-10-26T14:09:41.269Z,30.61
2023-10-26T14:12:10.941Z,30.60
2023-10-26T14:14:41.619Z,30.63
2023-10-26T14:17:11.497Z,30.63
2023-10-26T14:19:41.389Z,30.53
2023-10-26T14:22:11.218Z,30.47
2023-10-26T14:24:42.922Z,30.38
2023-10-26T14:27:13.477Z,30.31
2023-10-26T14:29:43.828Z,30.25
2023-10-26T14:32:13.478Z,30.16
2023-10-26T14:34:43.697Z,30.13
2023-10-26T14:37:14.302Z,30.07
2023-10-26T14:39:44.392Z,30.05
2023-10-26T14:42:15.897Z,30.01
2023-10-26T14:44:46.225Z,29.99
2023-10-26T14:47:16.653Z,29.96
2023-10-26T14:49:47.856Z,29.84
2023-10-26T14:52:18.185Z,29.88
2023-10-26T14:54:48.059Z,29.82
2023-10-26T14:57:17.991Z,29.80
2023-10-26T14:59:47.778Z,29.79
2023-10-26T15:02:17.680Z,29.75
2023-10-26T15:04:47.769Z,29.71
2023-10-26T15:07:17.655Z,29.69
2023-10-26T15:10:20.422Z,29.65
2023-10-26T15:12:39.098Z,29.58
2023-10-26T15:15:09.277Z,29.56
2023-10-26T15:17:38.963Z,29.52
2023-10-26T15:20:09.418Z,29.65
2023-10-26T15:22:39.354Z,29.74
2023-10-26T15:25:09.585Z,29.79
2023-10-26T15:27:39.270Z,29.83
2023-10-26T15:30:09.571Z,29.82
2023-10-26T15:32:39.298Z,29.82
2023-10-26T15:35:09.411Z,29.82
2023-10-26T15:37:39.087Z,29.81
2023-10-26T15:40:13.894Z,29.82
2023-10-26T15:42:44.020Z,29.81
2023-10-26T15:45:17.387Z,29.80
2023-10-26T15:47:47.928Z,29.80
2023-10-26T15:50:18.380Z,29.79
2023-10-26T15:52:48.074Z,29.76
2023-10-26T15:55:19.470Z,29.75
2023-10-26T15:57:51.046Z,29.74
2023-10-26T16:00:21.196Z,29.72
2023-10-26T16:02:50.702Z,29.71
2023-10-26T16:05:20.690Z,29.71
2023-10-26T16:07:50.495Z,29.70
2023-10-26T16:10:20.448Z,29.67
2023-10-26T16:12:55.993Z,29.65
2023-10-26T16:15:26.152Z,29.65
2023-10-26T16:17:55.793Z,29.64
2023-10-26T16:20:26.037Z,29.61
2023-10-26T16:22:55.615Z,29.60
2023-10-26T16:25:25.680Z,29.58
2023-10-26T16:27:55.628Z,29.55
2023-10-26T16:30:25.926Z,29.55
2023-10-26T16:32:55.909Z,29.54
2023-10-26T16:35:25.620Z,29.52
2023-10-26T16:37:56.704Z,29.51
2023-10-26T16:40:28.228Z,29.49
2023-10-26T16:42:58.137Z,29.47
2023-10-26T16:45:28.235Z,29.46
2023-10-26T16:47:58.776Z,29.44
2023-10-26T16:50:28.740Z,29.43
2023-10-26T16:53:00.268Z,29.40
2023-10-26T16:55:30.184Z,29.39
2023-10-26T16:58:00.272Z,29.39
2023-10-26T17:00:30.600Z,29.39
2023-10-26T17:03:00.668Z,29.37
2023-10-26T17:05:30.439Z,29.36
2023-10-26T17:08:03.046Z,29.34
2023-10-26T17:10:33.048Z,29.32
2023-10-26T17:13:03.544Z,29.32
2023-10-26T17:15:34.225Z,29.30
2023-10-26T17:18:04.449Z,29.29
2023-10-26T17:20:34.158Z,29.28
2023-10-26T17:23:04.142Z,29.26
2023-10-26T17:25:37.356Z,29.24
2023-10-26T17:28:07.368Z,29.22
2023-10-26T17:30:38.761Z,29.21
2023-10-26T17:33:12.816Z,29.19
2023-10-26T17:35:45.337Z,29.18
2023-10-26T17:38:15.985Z,29.16
2023-10-26T17:40:47.479Z,29.14
2023-10-26T17:43:17.454Z,29.12
2023-10-26T17:45:56.945Z,29.12
2023-10-26T17:48:27.418Z,29.11
2023-10-26T17:50:57.159Z,29.07
2023-10-26T17:53:27.052Z,29.07
2023-10-26T17:56:06.537Z,29.05
2023-10-26T17:58:36.536Z,29.05
2023-10-26T18:01:07.293Z,29.03
2023-10-26T18:03:38.563Z,29.04
2023-10-26T18:06:08.480Z,29.02
2023-10-26T18:08:39.473Z,29.01
2023-10-26T18:11:09.561Z,28.99
2023-10-26T18:13:39.204Z,28.96
2023-10-26T18:16:09.789Z,28.95
2023-10-26T18:18:40.383Z,28.94
2023-10-26T18:21:10.614Z,28.92
2023-10-26T18:23:40.300Z,28.92
2023-10-26T18:26:11.389Z,28.90
2023-10-26T18:28:42.223Z,28.88
2023-10-26T18:31:18.178Z,28.89
2023-10-26T18:33:52.095Z,28.88
2023-10-26T18:36:23.277Z,28.86
2023-10-26T18:38:55.588Z,28.87
2023-10-26T18:41:26.656Z,28.85
2023-10-26T18:43:57.122Z,28.84
2023-10-26T18:46:27.146Z,28.83
2023-10-26T18:48:57.625Z,28.81
2023-10-26T18:51:27.352Z,28.80
2023-10-26T18:54:01.148Z,28.81
2023-10-26T18:56:31.121Z,28.78
2023-10-26T18:59:01.827Z,28.77
2023-10-26T19:01:31.790Z,28.76
2023-10-26T19:04:03.293Z,28.77
2023-10-26T19:06:33.415Z,28.75
2023-10-26T19:09:03.102Z,28.72
2023-10-26T19:11:33.159Z,28.73
2023-10-26T19:14:02.829Z,28.72
2023-10-26T19:16:32.973Z,28.71
2023-10-26T19:19:02.770Z,28.69
2023-10-26T19:21:32.740Z,28.54
2023-10-26T19:24:02.387Z,28.68
2023-10-26T19:26:32.300Z,28.66
2023-10-26T19:29:02.038Z,28.64
2023-10-26T19:31:32.004Z,28.65
2023-10-26T19:34:01.656Z,28.65
2023-10-26T19:36:32.217Z,28.61
2023-10-26T19:39:02.060Z,28.61
2023-10-26T19:41:31.791Z,28.60
2023-10-26T19:44:02.284Z,28.59
2023-10-26T19:46:34.418Z,28.59
2023-10-26T19:49:06.076Z,28.57
2023-10-26T19:51:36.130Z,28.55
2023-10-26T19:54:05.968Z,28.54
2023-10-26T19:56:36.019Z,28.56
2023-10-26T19:59:06.007Z,28.55
2023-10-26T20:01:35.876Z,28.54
2023-10-26T20:04:06.137Z,28.51
2023-10-26T20:06:36.109Z,28.50
2023-10-26T20:09:07.515Z,28.50
2023-10-26T20:11:37.508Z,28.49
2023-10-26T20:14:07.332Z,28.49
2023-10-26T20:16:37.122Z,28.49
2023-10-26T20:19:07.099Z,28.49
2023-10-26T20:21:45.981Z,28.48
2023-10-26T20:24:16.025Z,28.46
2023-10-26T20:26:45.708Z,28.44
2023-10-26T20:29:16.049Z,28.44
2023-10-26T20:31:45.976Z,28.43
2023-10-26T20:34:21.743Z,28.43
2023-10-26T20:36:52.496Z,28.41
2023-10-26T20:39:22.641Z,28.39
2023-10-26T20:41:52.657Z,28.39
2023-10-26T20:44:22.585Z,28.39
2023-10-26T20:46:52.537Z,28.39
2023-10-26T20:49:23.826Z,28.38
2023-10-26T20:51:53.819Z,28.36
2023-10-26T20:54:23.467Z,28.38
2023-10-26T20:56:53.370Z,28.36
2023-10-26T20:59:23.138Z,28.35
2023-10-26T21:01:53.362Z,28.33
2023-10-26T21:04:23.518Z,28.32
2023-10-26T21:06:54.063Z,28.31
2023-10-26T21:09:23.912Z,28.31
2023-10-26T21:11:53.664Z,28.29
2023-10-26T21:14:24.205Z,28.29
2023-10-26T21:16:54.276Z,28.29
2023-10-26T21:19:24.087Z,28.28
2023-10-26T21:21:54.018Z,28.27
2023-10-26T21:24:23.597Z,28.26
2023-10-26T21:26:53.651Z,28.24
2023-10-26T21:29:23.221Z,28.24
2023-10-26T21:31:53.102Z,28.22
2023-10-26T21:34:23.284Z,28.25
2023-10-26T21:36:53.271Z,28.23
2023-10-26T21:39:22.858Z,28.22
2023-10-26T21:41:52.861Z,28.20
2023-10-26T21:44:22.644Z,28.22
2023-10-26T21:46:52.650Z,28.19
2023-10-26T21:49:22.873Z,28.20
2023-10-26T21:51:53.139Z,28.19
2023-10-26T21:54:22.803Z,28.18
2023-10-26T21:56:52.820Z,28.20
2023-10-26T21:59:22.893Z,28.18
2023-10-26T22:01:54.050Z,28.18
2023-10-26T22:04:24.195Z,28.18
2023-10-26T22:06:53.956Z,28.17
2023-10-26T22:09:25.528Z,28.17
2023-10-26T22:11:55.557Z,28.20
2023-10-26T22:14:25.587Z,28.27
2023-10-26T22:16:55.479Z,28.35
2023-10-26T22:19:26.099Z,28.41
2023-10-26T22:21:56.481Z,28.48
2023-10-26T22:24:26.240Z,28.55
2023-10-26T22:26:56.190Z,28.62
2023-10-26T22:29:30.404Z,28.67
2023-10-26T22:32:01.164Z,28.72
2023-10-26T22:34:32.523Z,28.76
2023-10-26T22:37:02.517Z,28.81
2023-10-26T22:39:32.101Z,28.86
2023-10-26T22:42:01.836Z,28.90
2023-10-26T22:44:31.853Z,28.93
2023-10-26T22:47:01.532Z,28.98
2023-10-26T22:49:31.634Z,29.00
2023-10-26T22:52:02.114Z,29.03
2023-10-26T22:54:32.133Z,29.05
2023-10-26T22:57:02.349Z,29.09
2023-10-26T22:59:31.952Z,29.11
2023-10-26T23:02:01.952Z,29.14
2023-10-26T23:04:32.662Z,29.11
2023-10-26T23:07:02.666Z,29.11
2023-10-26T23:09:32.348Z,29.12
2023-10-26T23:12:02.330Z,29.12
2023-10-26T23:14:32.478Z,29.14
2023-10-26T23:17:02.381Z,29.14
2023-10-26T23:19:32.098Z,29.15
2023-10-26T23:22:02.820Z,29.17
2023-10-26T23:24:32.502Z,29.18
2023-10-26T23:27:02.158Z,29.19
2023-10-26T23:29:32.005Z,29.23
2023-10-26T23:32:01.754Z,29.24
2023-10-26T23:34:32.536Z,29.26
2023-10-26T23:37:02.595Z,29.27
2023-10-26T23:39:35.887Z,29.28
2023-10-26T23:42:06.743Z,29.29
2023-10-26T23:44:36.330Z,29.29
2023-10-26T23:47:06.401Z,29.32
2023-10-26T23:49:36.038Z,29.30
2023-10-26T23:52:07.158Z,29.33
2023-10-26T23:54:37.191Z,29.35
2023-10-26T23:57:06.965Z,29.38
2023-10-26T23:59:37.003Z,29.39
